If you wish to contribute or participate in the discussions about articles you are invited to join SKYbrary as a registered user

 Actions

Armilla Airport

From SKYbrary Wiki

LEGA
Airport
ICAO: LEGA
Summary
Name Armilla Airport
Region Europe
Territory Spain ES.gif
Location , Andalucia
Serving Granada
Elevation 700.126 m
2,297 ft
2,297 ft700.126 m
Type medium airport
Coordinates 37° 7' 59.60" N, 3° 38' 8.50" W
Runways
Designator Length Width Surface ROPS
18/36 1300 m4,265.092 ft
30 m98.425 ft
ASP /


METAR
Observation LEGA 231600Z 18012KT 160V220 9999 FEW070 28/02 Q1017
Station Granada / Armilla
Date/Time 23 May 2019 16:00:00
Wind direction 180°
Wind speed 12 kts
Lowest cloud amount few clouds
Temperature 28°C
Dew point 2°C
Humidity 18%
QNH 1017 hPa
Weather condition n/a